• Join FlightAware (Why Join?)
  • Login
  • US Flag 
09:58PM EDT


 

Airport Tracker/Info


-or-


 

Live Flight TrackerFlight Track Log ✈ SET1696 ✈ 18-May-2014 ✈ RJSF / FKS - RJOO / ITM

Flight Track Log - Related Links

Times and Time Zones

All times are in EDT time to prevent confusion due to time zone crossing. See the SET1696 flight status page for this flight to view local times or setup timezone preferences in your user account.

Time Position Orientation Groundspeed Altitude Reporting Facility
EDT Latitude Longitude Course Direction KTS MPH feet Rate Location/Type
08:51PM 37.0362 140.0119 240° Southwest  Level Estimated
08:52PM 36.9882 139.9075 240° Southwest  Level Estimated
08:53PM 36.9401 139.8033 240° Southwest  Level Estimated
08:54PM 36.8919 139.6992 240° Southwest  Level Estimated
08:55PM 36.8436 139.5952 240° Southwest  Level Estimated
08:56PM 36.7952 139.4914 240° Southwest  Level Estimated
08:57PM 36.7467 139.3877 240° Southwest  Level Estimated
08:58PM 36.6981 139.2841 240° Southwest  Level Estimated
08:59PM 36.6494 139.1806 240° Southwest  Level Estimated
09:00PM 36.6007 139.0773 240° Southwest  Level Estimated
09:01PM 36.5518 138.9741 240° Southwest  Level Estimated
09:02PM 36.5029 138.8711 239° Southwest  Level Estimated
09:03PM 36.4539 138.7682 239° Southwest  Level Estimated
09:04PM 36.4048 138.6654 239° Southwest  Level Estimated
09:05PM 36.3556 138.5627 239° Southwest  Level Estimated
09:06PM 36.3063 138.4602 239° Southwest  Level Estimated
09:07PM 36.2569 138.3578 239° Southwest  Level Estimated
09:08PM 36.2075 138.2555 239° Southwest  Level Estimated
09:09PM 36.1579 138.1533 239° Southwest  Level Estimated
09:10PM 36.1083 138.0513 239° Southwest  Level Estimated
09:11PM 36.0586 137.9494 239° Southwest  Level Estimated
09:12PM 36.0088 137.8477 239° Southwest  Level Estimated
09:13PM 35.9589 137.7460 239° Southwest  Level Estimated
09:14PM 35.9089 137.6445 239° Southwest  Level Estimated
09:15PM 35.8589 137.5432 239° Southwest  Level Estimated
09:16PM 35.8087 137.4419 239° Southwest  Level Estimated
09:17PM 35.7585 137.3408 239° Southwest  Level Estimated
09:18PM 35.7082 137.2398 238° Southwest  Level Estimated
09:19PM 35.6578 137.1389 238° Southwest  Level Estimated
09:20PM 35.6073 137.0382 238° Southwest  Level Estimated
09:21PM 35.5567 136.9376 238° Southwest  Level Estimated
09:22PM 35.5061 136.8371 238° Southwest  Level Estimated
09:23PM 35.4553 136.7368 238° Southwest  Level Estimated
09:24PM 35.4045 136.6365 238° Southwest  Level Estimated
09:25PM 35.3536 136.5364 238° Southwest  Level Estimated
09:26PM 35.3026 136.4364 238° Southwest  Level Estimated
09:27PM 35.2516 136.3366 238° Southwest  Level Estimated
09:28PM 35.2004 136.2369 238° Southwest  Level Estimated
09:29PM 35.1492 136.1373 238° Southwest  Level Estimated
09:30PM 35.0979 136.0378 238° Southwest  Level Estimated
09:31PM 35.0465 135.9385 238° Southwest  Level Estimated
09:32PM 34.9950 135.8392 238° Southwest  Level Estimated
09:33PM 34.9435 135.7401 238° Southwest  Level Estimated
09:34PM 34.8918 135.6412 238° Southwest  Level Estimated
09:35PM 34.8401 135.5423 238° Southwest  Level Estimated
09:36PM 34.7883 135.4436 237° Southwest  Level Estimated
09:37PM 34.7855 135.4382 237° Southwest  Level Estimated
09:38PM 34.7855 135.4382 North  Level Estimated
09:39PM 34.7855 135.4382 North  Level Estimated
09:40PM 34.7855 135.4382 North  Level Estimated
09:41PM 34.7855 135.4382 North  Level Estimated
09:42PM 34.7855 135.4382 North  Level Estimated
09:43PM 34.7855 135.4382 North  Level Estimated
09:44PM 34.7855 135.4382 North  Level Estimated
09:45PM 34.7855 135.4382 North  Level Estimated
09:46PM 34.7855 135.4382 North  Level Estimated
09:47PM 34.7855 135.4382 North  Level Estimated